sensor_id;sensor_type;location;lat;lon;timestamp;pressure;altitude;pressure_sealevel;temperature;humidity
18533;BME280;9396;51.510;11.934;2022-10-24T00:00:47;100031.56;;;14.07;100.00
18533;BME280;9396;51.510;11.934;2022-10-24T00:03:14;100019.69;;;14.10;100.00
18533;BME280;9396;51.510;11.934;2022-10-24T00:05:40;100012.13;;;13.98;100.00
18533;BME280;9396;51.510;11.934;2022-10-24T00:08:08;100005.03;;;13.91;100.00
18533;BME280;9396;51.510;11.934;2022-10-24T00:10:35;100008.06;;;14.03;100.00
18533;BME280;9396;51.510;11.934;2022-10-24T00:13:03;100013.69;;;14.08;100.00
18533;BME280;9396;51.510;11.934;2022-10-24T00:15:31;100011.56;;;14.18;100.00
18533;BME280;9396;51.510;11.934;2022-10-24T00:17:57;100028.00;;;14.29;100.00
18533;BME280;9396;51.510;11.934;2022-10-24T00:20:24;100026.41;;;14.35;100.00
18533;BME280;9396;51.510;11.934;2022-10-24T00:22:51;100021.25;;;14.33;100.00
18533;BME280;9396;51.510;11.934;2022-10-24T00:25:18;99977.25;;;14.07;100.00
18533;BME280;9396;51.510;11.934;2022-10-24T00:27:44;100039.88;;;14.41;100.00
18533;BME280;9396;51.510;11.934;2022-10-24T00:30:13;100031.59;;;14.36;100.00
18533;BME280;9396;51.510;11.934;2022-10-24T00:32:39;100032.41;;;14.37;100.00
18533;BME280;9396;51.510;11.934;2022-10-24T00:35:06;100032.84;;;14.40;100.00
18533;BME280;9396;51.510;11.934;2022-10-24T00:37:34;100035.47;;;14.34;100.00
18533;BME280;9396;51.510;11.934;2022-10-24T00:40:00;100031.22;;;14.39;100.00
18533;BME280;9396;51.510;11.934;2022-10-24T00:42:27;100025.47;;;14.42;100.00
18533;BME280;9396;51.510;11.934;2022-10-24T00:44:54;100026.13;;;14.44;100.00
18533;BME280;9396;51.510;11.934;2022-10-24T00:47:23;100044.47;;;14.47;100.00
18533;BME280;9396;51.510;11.934;2022-10-24T00:49:52;100044.47;;;14.47;100.00
18533;BME280;9396;51.510;11.934;2022-10-24T00:52:27;100043.47;;;14.48;100.00
18533;BME280;9396;51.510;11.934;2022-10-24T00:54:57;100049.28;;;14.52;100.00
18533;BME280;9396;51.510;11.934;2022-10-24T00:57:28;100042.69;;;14.54;100.00
18533;BME280;9396;51.510;11.934;2022-10-24T01:00:02;100042.88;;;14.53;100.00
18533;BME280;9396;51.510;11.934;2022-10-24T01:02:31;100033.84;;;14.54;100.00
18533;BME280;9396;51.510;11.934;2022-10-24T01:04:58;100036.34;;;14.55;100.00
18533;BME280;9396;51.510;11.934;2022-10-24T01:07:37;100027.28;;;14.56;100.00
18533;BME280;9396;51.510;11.934;2022-10-24T01:10:21;100035.13;;;14.58;100.00
18533;BME280;9396;51.510;11.934;2022-10-24T01:12:58;100023.59;;;14.57;100.00
18533;BME280;9396;51.510;11.934;2022-10-24T01:15:35;100015.56;;;14.57;100.00
18533;BME280;9396;51.510;11.934;2022-10-24T01:18:10;100016.56;;;14.56;100.00
18533;BME280;9396;51.510;11.934;2022-10-24T01:20:49;100011.41;;;14.55;100.00
18533;BME280;9396;51.510;11.934;2022-10-24T01:23:41;100002.09;;;14.51;100.00
18533;BME280;9396;51.510;11.934;2022-10-24T01:26:31;100016.97;;;14.53;100.00
18533;BME280;9396;51.510;11.934;2022-10-24T01:29:07;100028.88;;;14.51;100.00
18533;BME280;9396;51.510;11.934;2022-10-24T01:31:45;100043.47;;;14.48;100.00
18533;BME280;9396;51.510;11.934;2022-10-24T01:34:19;100031.84;;;14.41;100.00
18533;BME280;9396;51.510;11.934;2022-10-24T01:36:55;100029.19;;;14.41;100.00
18533;BME280;9396;51.510;11.934;2022-10-24T01:39:28;100024.19;;;14.38;100.00
18533;BME280;9396;51.510;11.934;2022-10-24T01:41:57;100027.88;;;14.37;100.00
18533;BME280;9396;51.510;11.934;2022-10-24T01:44:29;100028.06;;;14.36;100.00
18533;BME280;9396;51.510;11.934;2022-10-24T01:47:02;100016.72;;;14.34;100.00
18533;BME280;9396;51.510;11.934;2022-10-24T01:49:34;100017.56;;;14.34;100.00
18533;BME280;9396;51.510;11.934;2022-10-24T01:52:04;100020.59;;;14.31;100.00
18533;BME280;9396;51.510;11.934;2022-10-24T01:54:34;100011.75;;;14.31;100.00
18533;BME280;9396;51.510;11.934;2022-10-24T01:57:01;100011.31;;;14.27;100.00
18533;BME280;9396;51.510;11.934;2022-10-24T01:59:41;100009.78;;;14.25;100.00
18533;BME280;9396;51.510;11.934;2022-10-24T02:02:14;100010.63;;;14.25;100.00
18533;BME280;9396;51.510;11.934;2022-10-24T02:04:45;100008.78;;;14.26;100.00
18533;BME280;9396;51.510;11.934;2022-10-24T02:07:15;100015.13;;;14.25;100.00
18533;BME280;9396;51.510;11.934;2022-10-24T02:09:46;100015.31;;;14.23;100.00
18533;BME280;9396;51.510;11.934;2022-10-24T02:12:15;100016.72;;;14.19;100.00
18533;BME280;9396;51.510;11.934;2022-10-24T02:14:46;100016.72;;;14.19;100.00
18533;BME280;9396;51.510;11.934;2022-10-24T02:17:17;100023.44;;;14.15;100.00
18533;BME280;9396;51.510;11.934;2022-10-24T02:19:45;100029.56;;;14.09;100.00
18533;BME280;9396;51.510;11.934;2022-10-24T02:22:20;100024.56;;;14.06;100.00
18533;BME280;9396;51.510;11.934;2022-10-24T02:24:52;100017.56;;;14.05;100.00
18533;BME280;9396;51.510;11.934;2022-10-24T02:27:23;100033.59;;;14.05;100.00
18533;BME280;9396;51.510;11.934;2022-10-24T02:29:53;100027.59;;;14.03;100.00
18533;BME280;9396;51.510;11.934;2022-10-24T02:32:27;100019.31;;;13.98;100.00
18533;BME280;9396;51.510;11.934;2022-10-24T02:34:57;100013.97;;;13.98;100.00
18533;BME280;9396;51.510;11.934;2022-10-24T02:37:24;100016.63;;;13.98;100.00
18533;BME280;9396;51.510;11.934;2022-10-24T02:39:53;100007.44;;;13.86;100.00
18533;BME280;9396;51.510;11.934;2022-10-24T02:42:22;100002.06;;;13.86;100.00
18533;BME280;9396;51.510;11.934;2022-10-24T02:44:49;100002.06;;;13.86;100.00
18533;BME280;9396;51.510;11.934;2022-10-24T02:47:17;99990.34;;;13.87;100.00
18533;BME280;9396;51.510;11.934;2022-10-24T02:49:46;99987.03;;;13.85;100.00
18533;BME280;9396;51.510;11.934;2022-10-24T02:52:13;99995.81;;;13.79;100.00
18533;BME280;9396;51.510;11.934;2022-10-24T02:54:40;99992.88;;;13.74;100.00
18533;BME280;9396;51.510;11.934;2022-10-24T02:57:07;99992.69;;;13.75;100.00
18533;BME280;9396;51.510;11.934;2022-10-24T02:59:33;99990.25;;;13.66;100.00
18533;BME280;9396;51.510;11.934;2022-10-24T03:02:00;99991.84;;;13.75;100.00
18533;BME280;9396;51.510;11.934;2022-10-24T03:04:27;99985.13;;;13.79;100.00
18533;BME280;9396;51.510;11.934;2022-10-24T03:06:55;99998.94;;;13.82;100.00
18533;BME280;9396;51.510;11.934;2022-10-24T03:09:21;100004.94;;;13.84;100.00
18533;BME280;9396;51.510;11.934;2022-10-24T03:11:48;100008.59;;;13.83;100.00
18533;BME280;9396;51.510;11.934;2022-10-24T03:14:15;100012.19;;;13.76;100.00
18533;BME280;9396;51.510;11.934;2022-10-24T03:16:41;100010.94;;;13.72;100.00
18533;BME280;9396;51.510;11.934;2022-10-24T03:19:08;100010.56;;;13.75;100.00
18533;BME280;9396;51.510;11.934;2022-10-24T03:21:35;100010.34;;;13.76;100.00
18533;BME280;9396;51.510;11.934;2022-10-24T03:24:03;100011.84;;;13.79;100.00
18533;BME280;9396;51.510;11.934;2022-10-24T03:26:30;100012.94;;;13.70;100.00
18533;BME280;9396;51.510;11.934;2022-10-24T03:28:56;100010.34;;;13.62;100.00
18533;BME280;9396;51.510;11.934;2022-10-24T03:31:23;100027.56;;;13.45;100.00
18533;BME280;9396;51.510;11.934;2022-10-24T03:33:50;100012.09;;;13.40;100.00
18533;BME280;9396;51.510;11.934;2022-10-24T03:36:17;100012.72;;;13.42;100.00
18533;BME280;9396;51.510;11.934;2022-10-24T03:38:43;100010.31;;;13.33;100.00
18533;BME280;9396;51.510;11.934;2022-10-24T03:41:11;100012.09;;;13.40;100.00
18533;BME280;9396;51.510;11.934;2022-10-24T03:43:38;100026.72;;;13.44;100.00
18533;BME280;9396;51.510;11.934;2022-10-24T03:46:05;100021.66;;;13.49;100.00
18533;BME280;9396;51.510;11.934;2022-10-24T03:48:32;100023.81;;;13.54;100.00
18533;BME280;9396;51.510;11.934;2022-10-24T03:50:58;100020.00;;;13.48;100.00
18533;BME280;9396;51.510;11.934;2022-10-24T03:53:25;100020.38;;;13.45;100.00
18533;BME280;9396;51.510;11.934;2022-10-24T03:55:51;100019.81;;;13.50;100.00
18533;BME280;9396;51.510;11.934;2022-10-24T03:58:20;100028.97;;;13.55;100.00
18533;BME280;9396;51.510;11.934;2022-10-24T04:00:47;100043.44;;;13.61;100.00
18533;BME280;9396;51.510;11.934;2022-10-24T04:03:13;100041.41;;;13.63;100.00
18533;BME280;9396;51.510;11.934;2022-10-24T04:05:40;100041.22;;;13.64;100.00
18533;BME280;9396;51.510;11.934;2022-10-24T04:08:07;100054.31;;;13.59;100.00
18533;BME280;9396;51.510;11.934;2022-10-24T04:10:33;100064.09;;;13.67;100.00
18533;BME280;9396;51.510;11.934;2022-10-24T04:13:00;100057.38;;;13.71;100.00
18533;BME280;9396;51.510;11.934;2022-10-24T04:15:28;100046.94;;;13.61;100.00
18533;BME280;9396;51.510;11.934;2022-10-24T04:17:55;100039.88;;;13.68;100.00
18533;BME280;9396;51.510;11.934;2022-10-24T04:20:22;100044.66;;;13.73;100.00
18533;BME280;9396;51.510;11.934;2022-10-24T04:22:48;100043.47;;;13.75;100.00
18533;BME280;9396;51.510;11.934;2022-10-24T04:25:16;100036.75;;;13.42;100.00
18533;BME280;9396;51.510;11.934;2022-10-24T04:27:43;100031.03;;;13.31;100.00
18533;BME280;9396;51.510;11.934;2022-10-24T04:30:12;100014.63;;;13.34;100.00
18533;BME280;9396;51.510;11.934;2022-10-24T04:32:40;100016.38;;;13.27;100.00
18533;BME280;9396;51.510;11.934;2022-10-24T04:35:08;100015.81;;;13.17;100.00
18533;BME280;9396;51.510;11.934;2022-10-24T04:37:34;100011.25;;;13.03;100.00
18533;BME280;9396;51.510;11.934;2022-10-24T04:40:01;100003.38;;;13.01;100.00
18533;BME280;9396;51.510;11.934;2022-10-24T04:42:28;100000.09;;;12.91;100.00
18533;BME280;9396;51.510;11.934;2022-10-24T04:44:55;100003.53;;;13.08;100.00
18533;BME280;9396;51.510;11.934;2022-10-24T04:47:21;100001.78;;;13.15;100.00
18533;BME280;9396;51.510;11.934;2022-10-24T04:49:49;100004.00;;;13.11;100.00
18533;BME280;9396;51.510;11.934;2022-10-24T04:52:16;99996.50;;;13.07;100.00
18533;BME280;9396;51.510;11.934;2022-10-24T04:54:42;99982.31;;;12.83;100.00
18533;BME280;9396;51.510;11.934;2022-10-24T04:57:09;99976.63;;;12.86;100.00
18533;BME280;9396;51.510;11.934;2022-10-24T04:59:36;99977.22;;;12.97;100.00
18533;BME280;9396;51.510;11.934;2022-10-24T05:02:02;99965.66;;;13.04;100.00
18533;BME280;9396;51.510;11.934;2022-10-24T05:04:29;99960.41;;;13.11;100.00
18533;BME280;9396;51.510;11.934;2022-10-24T05:06:57;99970.59;;;13.15;100.00
18533;BME280;9396;51.510;11.934;2022-10-24T05:09:24;99971.69;;;13.21;100.00
18533;BME280;9396;51.510;11.934;2022-10-24T05:11:53;99965.81;;;13.25;100.00
18533;BME280;9396;51.510;11.934;2022-10-24T05:14:19;99965.81;;;13.25;100.00
18533;BME280;9396;51.510;11.934;2022-10-24T05:16:46;99975.41;;;13.34;100.00
18533;BME280;9396;51.510;11.934;2022-10-24T05:19:13;99973.84;;;13.40;100.00
18533;BME280;9396;51.510;11.934;2022-10-24T05:21:40;99975.97;;;13.44;100.00
18533;BME280;9396;51.510;11.934;2022-10-24T05:24:08;99982.13;;;13.45;100.00
18533;BME280;9396;51.510;11.934;2022-10-24T05:26:35;99983.63;;;13.47;100.00
18533;BME280;9396;51.510;11.934;2022-10-24T05:29:02;99982.50;;;13.42;100.00
18533;BME280;9396;51.510;11.934;2022-10-24T05:31:28;99982.03;;;13.38;100.00
18533;BME280;9396;51.510;11.934;2022-10-24T05:33:55;99983.78;;;13.46;100.00
18533;BME280;9396;51.510;11.934;2022-10-24T05:36:21;99993.19;;;13.42;100.00
18533;BME280;9396;51.510;11.934;2022-10-24T05:38:48;99984.06;;;13.36;100.00
18533;BME280;9396;51.510;11.934;2022-10-24T05:41:16;99986.00;;;13.42;100.00
18533;BME280;9396;51.510;11.934;2022-10-24T05:43:43;99991.19;;;13.44;100.00
18533;BME280;9396;51.510;11.934;2022-10-24T05:46:09;100001.78;;;13.52;100.00
18533;BME280;9396;51.510;11.934;2022-10-24T05:48:36;99996.25;;;13.53;100.00
18533;BME280;9396;51.510;11.934;2022-10-24T05:51:03;100002.31;;;13.62;100.00
18533;BME280;9396;51.510;11.934;2022-10-24T05:53:30;99945.81;;;13.36;100.00
18533;BME280;9396;51.510;11.934;2022-10-24T05:55:57;100002.25;;;13.70;100.00
18533;BME280;9396;51.510;11.934;2022-10-24T05:58:25;99993.66;;;13.74;100.00
18533;BME280;9396;51.510;11.934;2022-10-24T06:00:52;99989.09;;;13.83;100.00
18533;BME280;9396;51.510;11.934;2022-10-24T06:03:19;100000.84;;;13.88;100.00
18533;BME280;9396;51.510;11.934;2022-10-24T06:05:45;99988.59;;;13.94;100.00
18533;BME280;9396;51.510;11.934;2022-10-24T06:08:12;99983.72;;;13.97;100.00
18533;BME280;9396;51.510;11.934;2022-10-24T06:10:38;99974.13;;;13.88;100.00
18533;BME280;9396;51.510;11.934;2022-10-24T06:13:05;99983.50;;;13.99;100.00
18533;BME280;9396;51.510;11.934;2022-10-24T06:15:34;99987.88;;;14.00;100.00
18533;BME280;9396;51.510;11.934;2022-10-24T06:18:00;99985.84;;;14.02;100.00
18533;BME280;9396;51.510;11.934;2022-10-24T06:20:27;99990.81;;;14.05;100.00
18533;BME280;9396;51.510;11.934;2022-10-24T06:22:53;99995.44;;;14.11;100.00
18533;BME280;9396;51.510;11.934;2022-10-24T06:25:20;100002.03;;;14.15;100.00
18533;BME280;9396;51.510;11.934;2022-10-24T06:27:46;99998.38;;;14.16;100.00
18533;BME280;9396;51.510;11.934;2022-10-24T06:30:13;99999.66;;;14.20;100.00
18533;BME280;9396;51.510;11.934;2022-10-24T06:32:41;99993.47;;;14.05;100.00
18533;BME280;9396;51.510;11.934;2022-10-24T06:35:08;100000.31;;;14.08;100.00
18533;BME280;9396;51.510;11.934;2022-10-24T06:37:37;100006.78;;;14.13;100.00
18533;BME280;9396;51.510;11.934;2022-10-24T06:40:04;100007.50;;;14.22;100.00
18533;BME280;9396;51.510;11.934;2022-10-24T06:42:31;100016.44;;;14.14;100.00
18533;BME280;9396;51.510;11.934;2022-10-24T06:44:58;100020.88;;;14.22;100.00
18533;BME280;9396;51.510;11.934;2022-10-24T06:47:24;100020.31;;;14.26;100.00
18533;BME280;9396;51.510;11.934;2022-10-24T06:49:52;100022.47;;;14.31;100.00
18533;BME280;9396;51.510;11.934;2022-10-24T06:52:19;100011.94;;;14.15;100.00
18533;BME280;9396;51.510;11.934;2022-10-24T06:54:46;100009.78;;;14.10;100.00
18533;BME280;9396;51.510;11.934;2022-10-24T06:57:13;100018.47;;;14.12;100.00
18533;BME280;9396;51.510;11.934;2022-10-24T06:59:40;100020.31;;;14.26;100.00
18533;BME280;9396;51.510;11.934;2022-10-24T07:02:08;100035.25;;;14.35;100.00
18533;BME280;9396;51.510;11.934;2022-10-24T07:04:35;100041.53;;;14.42;100.00
18533;BME280;9396;51.510;11.934;2022-10-24T07:07:03;100045.31;;;14.48;100.00
18533;BME280;9396;51.510;11.934;2022-10-24T07:09:30;100032.56;;;14.50;100.00
18533;BME280;9396;51.510;11.934;2022-10-24T07:11:57;100030.53;;;14.52;100.00
18533;BME280;9396;51.510;11.934;2022-10-24T07:14:24;100038.63;;;14.58;100.00
18533;BME280;9396;51.510;11.934;2022-10-24T07:16:50;100034.00;;;14.67;100.00
18533;BME280;9396;51.510;11.934;2022-10-24T07:19:17;100036.97;;;14.72;100.00
18533;BME280;9396;51.510;11.934;2022-10-24T07:21:43;100047.91;;;14.77;100.00
18533;BME280;9396;51.510;11.934;2022-10-24T07:24:12;100018.91;;;14.59;100.00
18533;BME280;9396;51.510;11.934;2022-10-24T07:26:39;100066.34;;;14.86;100.00
18533;BME280;9396;51.510;11.934;2022-10-24T07:29:05;100060.94;;;14.80;100.00
18533;BME280;9396;51.510;11.934;2022-10-24T07:31:34;100065.53;;;14.86;100.00
18533;BME280;9396;51.510;11.934;2022-10-24T07:34:03;100068.56;;;14.83;100.00
18533;BME280;9396;51.510;11.934;2022-10-24T07:36:30;100071.69;;;14.86;100.00
18533;BME280;9396;51.510;11.934;2022-10-24T07:38:58;100073.13;;;14.82;100.00
18533;BME280;9396;51.510;11.934;2022-10-24T07:41:28;100068.84;;;14.88;100.00
18533;BME280;9396;51.510;11.934;2022-10-24T07:43:56;100071.59;;;14.94;100.00
18533;BME280;9396;51.510;11.934;2022-10-24T07:46:24;100067.53;;;14.98;100.00
18533;BME280;9396;51.510;11.934;2022-10-24T07:48:52;100062.78;;;15.00;100.00
18533;BME280;9396;51.510;11.934;2022-10-24T07:51:20;100047.03;;;14.91;100.00
18533;BME280;9396;51.510;11.934;2022-10-24T07:53:47;100065.75;;;15.06;100.00
18533;BME280;9396;51.510;11.934;2022-10-24T07:56:15;100068.69;;;15.11;100.00
18533;BME280;9396;51.510;11.934;2022-10-24T07:58:45;100062.72;;;15.15;100.00
18533;BME280;9396;51.510;11.934;2022-10-24T08:01:13;100066.44;;;15.14;100.00
18533;BME280;9396;51.510;11.934;2022-10-24T08:03:41;100064.22;;;15.18;100.00
18533;BME280;9396;51.510;11.934;2022-10-24T08:06:09;100065.50;;;15.22;100.00
18533;BME280;9396;51.510;11.934;2022-10-24T08:08:36;100060.56;;;15.25;100.00
18533;BME280;9396;51.510;11.934;2022-10-24T08:11:06;100065.53;;;15.28;100.00
18533;BME280;9396;51.510;11.934;2022-10-24T08:13:33;100065.16;;;15.31;100.00
18533;BME280;9396;51.510;11.934;2022-10-24T08:16:04;100049.06;;;15.31;100.00
18533;BME280;9396;51.510;11.934;2022-10-24T08:18:30;100047.66;;;15.35;100.00
18533;BME280;9396;51.510;11.934;2022-10-24T08:20:58;100044.41;;;15.40;100.00
18533;BME280;9396;51.510;11.934;2022-10-24T08:23:26;100035.75;;;15.38;100.00
18533;BME280;9396;51.510;11.934;2022-10-24T08:25:52;100028.31;;;15.40;100.00
18533;BME280;9396;51.510;11.934;2022-10-24T08:28:19;100021.22;;;15.47;100.00
18533;BME280;9396;51.510;11.934;2022-10-24T08:30:54;100015.69;;;15.55;100.00
18533;BME280;9396;51.510;11.934;2022-10-24T08:33:22;100032.19;;;15.52;100.00
18533;BME280;9396;51.510;11.934;2022-10-24T08:35:49;100020.22;;;15.54;100.00
18533;BME280;9396;51.510;11.934;2022-10-24T08:38:15;100026.66;;;15.60;100.00
18533;BME280;9396;51.510;11.934;2022-10-24T08:40:42;100023.13;;;15.59;100.00
18533;BME280;9396;51.510;11.934;2022-10-24T08:43:10;100025.06;;;15.65;100.00
18533;BME280;9396;51.510;11.934;2022-10-24T08:45:41;100022.38;;;15.65;100.00
18533;BME280;9396;51.510;11.934;2022-10-24T08:48:12;100021.72;;;15.63;100.00
18533;BME280;9396;51.510;11.934;2022-10-24T08:50:44;100020.28;;;15.61;100.00
18533;BME280;9396;51.510;11.934;2022-10-24T08:53:15;100021.16;;;15.68;100.00
18533;BME280;9396;51.510;11.934;2022-10-24T08:55:47;100012.31;;;15.74;100.00
18533;BME280;9396;51.510;11.934;2022-10-24T08:58:17;100023.72;;;15.82;100.00
18533;BME280;9396;51.510;11.934;2022-10-24T09:00:48;100014.84;;;15.82;100.00
18533;BME280;9396;51.510;11.934;2022-10-24T09:03:20;100009.31;;;15.90;100.00
18533;BME280;9396;51.510;11.934;2022-10-24T09:05:55;100008.50;;;15.89;100.00
18533;BME280;9396;51.510;11.934;2022-10-24T09:08:26;100017.84;;;16.00;100.00
18533;BME280;9396;51.510;11.934;2022-10-24T09:10:57;100020.34;;;16.01;100.00
18533;BME280;9396;51.510;11.934;2022-10-24T09:13:26;100025.31;;;16.04;100.00
18533;BME280;9396;51.510;11.934;2022-10-24T09:15:53;100017.66;;;16.01;100.00
18533;BME280;9396;51.510;11.934;2022-10-24T09:18:21;100019.72;;;16.06;100.00
18533;BME280;9396;51.510;11.934;2022-10-24T09:20:52;100015.44;;;16.12;100.00
18533;BME280;9396;51.510;11.934;2022-10-24T09:23:21;100015.00;;;16.08;100.00
18533;BME280;9396;51.510;11.934;2022-10-24T09:25:50;100020.59;;;16.13;100.00
18533;BME280;9396;51.510;11.934;2022-10-24T09:28:18;100022.91;;;16.16;100.00
18533;BME280;9396;51.510;11.934;2022-10-24T09:30:45;100004.25;;;16.08;100.00
18533;BME280;9396;51.510;11.934;2022-10-24T09:33:20;100030.75;;;16.18;100.00
18533;BME280;9396;51.510;11.934;2022-10-24T09:35:50;100026.59;;;16.15;100.00
18533;BME280;9396;51.510;11.934;2022-10-24T09:38:27;100024.13;;;16.20;100.00
18533;BME280;9396;51.510;11.934;2022-10-24T09:40:58;100024.38;;;16.25;100.00
18533;BME280;9396;51.510;11.934;2022-10-24T09:43:32;100026.66;;;16.28;100.00
18533;BME280;9396;51.510;11.934;2022-10-24T09:46:02;100029.38;;;16.35;100.00
18533;BME280;9396;51.510;11.934;2022-10-24T09:48:33;100023.78;;;16.36;100.00
18533;BME280;9396;51.510;11.934;2022-10-24T09:51:02;100021.75;;;16.38;100.00
18533;BME280;9396;51.510;11.934;2022-10-24T09:53:32;100017.84;;;16.41;100.00
18533;BME280;9396;51.510;11.934;2022-10-24T09:56:05;100022.16;;;16.42;100.00
18533;BME280;9396;51.510;11.934;2022-10-24T09:58:32;100023.00;;;16.42;100.00
18533;BME280;9396;51.510;11.934;2022-10-24T10:01:02;100022.81;;;16.44;100.00
18533;BME280;9396;51.510;11.934;2022-10-24T10:03:29;100029.25;;;16.49;100.00
18533;BME280;9396;51.510;11.934;2022-10-24T10:05:57;100028.06;;;16.58;100.00
18533;BME280;9396;51.510;11.934;2022-10-24T10:08:27;100015.66;;;16.57;100.00
18533;BME280;9396;51.510;11.934;2022-10-24T10:10:59;100015.25;;;16.60;100.00
18533;BME280;9396;51.510;11.934;2022-10-24T10:13:26;100014.84;;;16.63;100.00
18533;BME280;9396;51.510;11.934;2022-10-24T10:15:55;100013.81;;;16.64;100.00
18533;BME280;9396;51.510;11.934;2022-10-24T10:18:25;100010.72;;;16.67;100.00
18533;BME280;9396;51.510;11.934;2022-10-24T10:21:14;100009.91;;;16.67;100.00
18533;BME280;9396;51.510;11.934;2022-10-24T10:23:43;100008.69;;;16.69;100.00
18533;BME280;9396;51.510;11.934;2022-10-24T10:26:20;100011.13;;;16.64;100.00
18533;BME280;9396;51.510;11.934;2022-10-24T10:28:56;100006.63;;;16.71;100.00
18533;BME280;9396;51.510;11.934;2022-10-24T10:31:27;100007.84;;;16.69;100.00
18533;BME280;9396;51.510;11.934;2022-10-24T10:34:10;100009.47;;;16.70;100.00
18533;BME280;9396;51.510;11.934;2022-10-24T10:36:44;100011.56;;;16.68;100.00
18533;BME280;9396;51.510;11.934;2022-10-24T10:39:33;100021.28;;;16.69;100.00
18533;BME280;9396;51.510;11.934;2022-10-24T10:42:07;100020.84;;;16.72;100.00
18533;BME280;9396;51.510;11.934;2022-10-24T10:44:51;100028.72;;;16.73;100.00
18533;BME280;9396;51.510;11.934;2022-10-24T10:47:30;100019.44;;;16.76;100.00
18533;BME280;9396;51.510;11.934;2022-10-24T10:50:00;100021.06;;;16.77;100.00
18533;BME280;9396;51.510;11.934;2022-10-24T10:52:30;100022.97;;;16.76;100.00
18533;BME280;9396;51.510;11.934;2022-10-24T10:55:08;100019.44;;;16.82;100.00
18533;BME280;9396;51.510;11.934;2022-10-24T10:57:47;100010.75;;;16.80;100.00
18533;BME280;9396;51.510;11.934;2022-10-24T11:00:19;100021.13;;;16.83;100.00
18533;BME280;9396;51.510;11.934;2022-10-24T11:03:00;100012.44;;;16.88;100.00
18533;BME280;9396;51.510;11.934;2022-10-24T11:05:39;100019.25;;;16.90;100.00
18533;BME280;9396;51.510;11.934;2022-10-24T11:08:22;100023.22;;;16.94;100.00
18533;BME280;9396;51.510;11.934;2022-10-24T11:10:53;100022.38;;;17.00;100.00
18533;BME280;9396;51.510;11.934;2022-10-24T11:13:25;100025.28;;;17.05;100.00
18533;BME280;9396;51.510;11.934;2022-10-24T11:15:57;100029.00;;;17.04;100.00
18533;BME280;9396;51.510;11.934;2022-10-24T11:18:29;100017.41;;;17.04;100.00
18533;BME280;9396;51.510;11.934;2022-10-24T11:20:59;100011.19;;;16.97;100.00
18533;BME280;9396;51.510;11.934;2022-10-24T11:23:31;100018.84;;;16.93;100.00
18533;BME280;9396;51.510;11.934;2022-10-24T11:26:02;100014.31;;;16.94;100.00
18533;BME280;9396;51.510;11.934;2022-10-24T11:28:38;100006.47;;;16.99;100.00
18533;BME280;9396;51.510;11.934;2022-10-24T11:31:11;100007.50;;;17.04;100.00
18533;BME280;9396;51.510;11.934;2022-10-24T11:33:42;100001.06;;;17.05;100.00
18533;BME280;9396;51.510;11.934;2022-10-24T11:36:14;99991.59;;;17.09;100.00
18533;BME280;9396;51.510;11.934;2022-10-24T11:38:47;99999.66;;;17.09;100.00
18533;BME280;9396;51.510;11.934;2022-10-24T11:41:23;99994.47;;;17.08;100.00
18533;BME280;9396;51.510;11.934;2022-10-24T11:43:58;100000.69;;;17.15;100.00
18533;BME280;9396;51.510;11.934;2022-10-24T11:46:31;99989.94;;;17.22;100.00
18533;BME280;9396;51.510;11.934;2022-10-24T11:49:04;99995.94;;;17.24;100.00
18533;BME280;9396;51.510;11.934;2022-10-24T11:51:39;99990.97;;;17.27;100.00
18533;BME280;9396;51.510;11.934;2022-10-24T11:54:12;99987.66;;;17.32;100.00
18533;BME280;9396;51.510;11.934;2022-10-24T11:56:45;99979.81;;;17.37;100.00
18533;BME280;9396;51.510;11.934;2022-10-24T11:59:17;99982.47;;;17.43;100.00
18533;BME280;9396;51.510;11.934;2022-10-24T12:05:07;99980.22;;;17.60;100.00
18533;BME280;9396;51.510;11.934;2022-10-24T12:08:09;99972.97;;;17.67;100.00
18533;BME280;9396;51.510;11.934;2022-10-24T12:11:07;99972.53;;;17.70;100.00
18533;BME280;9396;51.510;11.934;2022-10-24T12:13:58;99974.84;;;17.73;100.00
18533;BME280;9396;51.510;11.934;2022-10-24T12:16:39;99969.84;;;17.70;100.00
18533;BME280;9396;51.510;11.934;2022-10-24T12:19:13;99958.25;;;17.69;100.00
18533;BME280;9396;51.510;11.934;2022-10-24T12:21:45;99951.44;;;17.67;100.00
18533;BME280;9396;51.510;11.934;2022-10-24T12:24:20;99953.09;;;17.74;100.00
18533;BME280;9396;51.510;11.934;2022-10-24T12:26:54;99953.91;;;17.75;100.00
18533;BME280;9396;51.510;11.934;2022-10-24T12:29:23;99957.81;;;17.79;100.00
18533;BME280;9396;51.510;11.934;2022-10-24T12:31:53;99959.91;;;17.77;100.00
18533;BME280;9396;51.510;11.934;2022-10-24T12:34:41;99947.25;;;17.84;100.00
18533;BME280;9396;51.510;11.934;2022-10-24T12:37:30;99958.00;;;17.84;100.00
18533;BME280;9396;51.510;11.934;2022-10-24T12:39:56;99949.75;;;17.79;100.00
18533;BME280;9396;51.510;11.934;2022-10-24T12:45:30;99951.22;;;17.81;99.83
18533;BME280;9396;51.510;11.934;2022-10-24T12:48:30;99952.84;;;17.82;100.00
18533;BME280;9396;51.510;11.934;2022-10-24T12:51:00;99942.31;;;17.81;99.76
18533;BME280;9396;51.510;11.934;2022-10-24T12:53:34;99950.81;;;17.78;99.87
18533;BME280;9396;51.510;11.934;2022-10-24T12:56:13;99957.41;;;17.75;100.00
18533;BME280;9396;51.510;11.934;2022-10-24T12:58:42;99958.47;;;17.74;99.99
18533;BME280;9396;51.510;11.934;2022-10-24T13:01:21;99963.63;;;17.76;100.00
18533;BME280;9396;51.510;11.934;2022-10-24T13:10:46;99934.22;;;17.81;98.27